sensor_id;sensor_type;location;lat;lon;timestamp;temperature;humidity
7942;HTU21D;4016;50.758;7.150;2024-02-21T00:01:16;9.07;118.99
7942;HTU21D;4016;50.758;7.150;2024-02-21T00:06:17;9.15;118.99
7942;HTU21D;4016;50.758;7.150;2024-02-21T00:11:17;9.06;118.99
7942;HTU21D;4016;50.758;7.150;2024-02-21T00:16:17;9.04;118.99
7942;HTU21D;4016;50.758;7.150;2024-02-21T00:21:18;9.18;118.99
7942;HTU21D;4016;50.758;7.150;2024-02-21T00:26:18;9.10;118.99
7942;HTU21D;4016;50.758;7.150;2024-02-21T00:31:18;9.12;118.99
7942;HTU21D;4016;50.758;7.150;2024-02-21T00:36:19;9.09;118.99
7942;HTU21D;4016;50.758;7.150;2024-02-21T00:41:19;9.11;118.99
7942;HTU21D;4016;50.758;7.150;2024-02-21T00:46:19;9.09;118.99
7942;HTU21D;4016;50.758;7.150;2024-02-21T00:51:20;9.07;118.99
7942;HTU21D;4016;50.758;7.150;2024-02-21T00:56:20;9.12;118.99
7942;HTU21D;4016;50.758;7.150;2024-02-21T01:01:24;9.11;118.99
7942;HTU21D;4016;50.758;7.150;2024-02-21T01:06:25;9.23;118.99
7942;HTU21D;4016;50.758;7.150;2024-02-21T01:11:26;9.05;118.99
7942;HTU21D;4016;50.758;7.150;2024-02-21T01:16:26;9.03;118.99
7942;HTU21D;4016;50.758;7.150;2024-02-21T01:21:26;9.18;118.99
7942;HTU21D;4016;50.758;7.150;2024-02-21T01:26:27;9.01;118.99
7942;HTU21D;4016;50.758;7.150;2024-02-21T01:31:27;8.94;118.99
7942;HTU21D;4016;50.758;7.150;2024-02-21T01:36:28;8.94;118.99
7942;HTU21D;4016;50.758;7.150;2024-02-21T01:41:31;8.87;118.99
7942;HTU21D;4016;50.758;7.150;2024-02-21T01:46:31;8.87;118.99
7942;HTU21D;4016;50.758;7.150;2024-02-21T01:51:32;8.95;118.99
7942;HTU21D;4016;50.758;7.150;2024-02-21T01:56:33;8.89;118.99
7942;HTU21D;4016;50.758;7.150;2024-02-21T02:01:33;8.82;118.99
7942;HTU21D;4016;50.758;7.150;2024-02-21T02:06:34;8.97;118.99
7942;HTU21D;4016;50.758;7.150;2024-02-21T02:11:35;8.93;118.99
7942;HTU21D;4016;50.758;7.150;2024-02-21T02:16:36;8.93;118.99
7942;HTU21D;4016;50.758;7.150;2024-02-21T02:21:39;8.94;118.99
7942;HTU21D;4016;50.758;7.150;2024-02-21T02:26:41;8.90;118.99
7942;HTU21D;4016;50.758;7.150;2024-02-21T02:31:42;8.91;118.99
7942;HTU21D;4016;50.758;7.150;2024-02-21T02:36:42;8.81;118.99
7942;HTU21D;4016;50.758;7.150;2024-02-21T02:41:43;8.78;118.99
7942;HTU21D;4016;50.758;7.150;2024-02-21T02:46:43;8.88;118.99
7942;HTU21D;4016;50.758;7.150;2024-02-21T02:51:43;8.76;118.99
7942;HTU21D;4016;50.758;7.150;2024-02-21T02:56:44;8.75;118.99
7942;HTU21D;4016;50.758;7.150;2024-02-21T03:01:44;8.87;118.99
7942;HTU21D;4016;50.758;7.150;2024-02-21T03:06:44;8.79;118.99
7942;HTU21D;4016;50.758;7.150;2024-02-21T03:11:45;8.85;118.99
7942;HTU21D;4016;50.758;7.150;2024-02-21T03:16:45;8.88;118.99
7942;HTU21D;4016;50.758;7.150;2024-02-21T03:21:46;8.74;118.99
7942;HTU21D;4016;50.758;7.150;2024-02-21T03:26:47;8.67;118.99
7942;HTU21D;4016;50.758;7.150;2024-02-21T03:31:51;8.63;118.99
7942;HTU21D;4016;50.758;7.150;2024-02-21T03:36:51;8.53;118.99
7942;HTU21D;4016;50.758;7.150;2024-02-21T03:41:51;8.46;118.99
7942;HTU21D;4016;50.758;7.150;2024-02-21T03:46:52;8.47;118.99
7942;HTU21D;4016;50.758;7.150;2024-02-21T03:51:52;8.50;118.99
7942;HTU21D;4016;50.758;7.150;2024-02-21T03:56:52;8.49;118.99
7942;HTU21D;4016;50.758;7.150;2024-02-21T04:01:53;8.61;118.99
7942;HTU21D;4016;50.758;7.150;2024-02-21T04:06:53;8.53;118.99
7942;HTU21D;4016;50.758;7.150;2024-02-21T04:11:54;8.50;118.99
7942;HTU21D;4016;50.758;7.150;2024-02-21T04:16:54;8.67;118.99
7942;HTU21D;4016;50.758;7.150;2024-02-21T04:21:54;8.62;118.99
7942;HTU21D;4016;50.758;7.150;2024-02-21T04:26:55;8.60;118.99
7942;HTU21D;4016;50.758;7.150;2024-02-21T04:31:55;8.53;118.99
7942;HTU21D;4016;50.758;7.150;2024-02-21T04:36:55;8.57;118.99
7942;HTU21D;4016;50.758;7.150;2024-02-21T04:41:56;8.58;118.99
7942;HTU21D;4016;50.758;7.150;2024-02-21T04:46:56;8.50;118.99
7942;HTU21D;4016;50.758;7.150;2024-02-21T04:51:56;8.49;118.99
7942;HTU21D;4016;50.758;7.150;2024-02-21T04:56:57;8.53;118.99
7942;HTU21D;4016;50.758;7.150;2024-02-21T05:01:57;8.53;118.99
7942;HTU21D;4016;50.758;7.150;2024-02-21T05:07:00;8.61;118.99
7942;HTU21D;4016;50.758;7.150;2024-02-21T05:12:01;8.64;118.99
7942;HTU21D;4016;50.758;7.150;2024-02-21T05:17:01;8.59;118.99
7942;HTU21D;4016;50.758;7.150;2024-02-21T05:22:01;8.80;118.99
7942;HTU21D;4016;50.758;7.150;2024-02-21T05:27:02;8.70;118.99
7942;HTU21D;4016;50.758;7.150;2024-02-21T05:32:02;8.64;118.99
7942;HTU21D;4016;50.758;7.150;2024-02-21T05:37:03;8.76;118.99
7942;HTU21D;4016;50.758;7.150;2024-02-21T05:42:03;8.75;118.99
7942;HTU21D;4016;50.758;7.150;2024-02-21T05:47:04;8.67;118.99
7942;HTU21D;4016;50.758;7.150;2024-02-21T05:52:04;8.65;118.99
7942;HTU21D;4016;50.758;7.150;2024-02-21T05:57:07;8.78;118.99
7942;HTU21D;4016;50.758;7.150;2024-02-21T06:02:07;8.92;118.99
7942;HTU21D;4016;50.758;7.150;2024-02-21T06:07:08;8.82;118.99
7942;HTU21D;4016;50.758;7.150;2024-02-21T06:12:08;8.68;118.99
7942;HTU21D;4016;50.758;7.150;2024-02-21T06:17:09;8.70;118.99
7942;HTU21D;4016;50.758;7.150;2024-02-21T06:22:09;8.63;118.99
7942;HTU21D;4016;50.758;7.150;2024-02-21T06:27:09;8.60;118.99
7942;HTU21D;4016;50.758;7.150;2024-02-21T06:32:11;8.62;118.99
7942;HTU21D;4016;50.758;7.150;2024-02-21T06:37:11;8.59;118.99
7942;HTU21D;4016;50.758;7.150;2024-02-21T06:42:12;8.59;118.99
7942;HTU21D;4016;50.758;7.150;2024-02-21T06:47:12;8.61;118.99
7942;HTU21D;4016;50.758;7.150;2024-02-21T06:52:12;8.63;118.99
7942;HTU21D;4016;50.758;7.150;2024-02-21T06:57:16;8.65;118.99
7942;HTU21D;4016;50.758;7.150;2024-02-21T07:02:17;8.64;118.99
7942;HTU21D;4016;50.758;7.150;2024-02-21T07:07:17;8.74;118.99
7942;HTU21D;4016;50.758;7.150;2024-02-21T07:12:17;8.73;118.99
7942;HTU21D;4016;50.758;7.150;2024-02-21T07:17:19;8.76;118.99
7942;HTU21D;4016;50.758;7.150;2024-02-21T07:22:19;8.72;118.99
7942;HTU21D;4016;50.758;7.150;2024-02-21T07:27:19;8.75;118.99
7942;HTU21D;4016;50.758;7.150;2024-02-21T07:32:20;8.73;118.99
7942;HTU21D;4016;50.758;7.150;2024-02-21T07:37:20;8.95;118.99
7942;HTU21D;4016;50.758;7.150;2024-02-21T07:42:20;8.77;118.99
7942;HTU21D;4016;50.758;7.150;2024-02-21T07:47:21;8.79;118.99
7942;HTU21D;4016;50.758;7.150;2024-02-21T07:52:21;8.90;118.99
7942;HTU21D;4016;50.758;7.150;2024-02-21T07:57:22;9.00;118.99
7942;HTU21D;4016;50.758;7.150;2024-02-21T08:02:22;8.93;118.99
7942;HTU21D;4016;50.758;7.150;2024-02-21T08:07:23;9.05;118.99
7942;HTU21D;4016;50.758;7.150;2024-02-21T08:12:23;8.98;118.99
7942;HTU21D;4016;50.758;7.150;2024-02-21T08:17:24;9.09;118.99
7942;HTU21D;4016;50.758;7.150;2024-02-21T08:22:24;9.06;118.99
7942;HTU21D;4016;50.758;7.150;2024-02-21T08:27:24;9.17;118.99
7942;HTU21D;4016;50.758;7.150;2024-02-21T08:32:25;9.20;118.99
7942;HTU21D;4016;50.758;7.150;2024-02-21T08:37:27;9.26;118.99
7942;HTU21D;4016;50.758;7.150;2024-02-21T08:42:27;9.48;118.99
7942;HTU21D;4016;50.758;7.150;2024-02-21T08:47:28;9.56;118.99
7942;HTU21D;4016;50.758;7.150;2024-02-21T08:52:28;9.71;118.99
7942;HTU21D;4016;50.758;7.150;2024-02-21T08:57:29;9.86;118.99
7942;HTU21D;4016;50.758;7.150;2024-02-21T09:02:29;9.92;118.99
7942;HTU21D;4016;50.758;7.150;2024-02-21T09:07:29;9.84;118.99
7942;HTU21D;4016;50.758;7.150;2024-02-21T09:12:30;9.98;118.99
7942;HTU21D;4016;50.758;7.150;2024-02-21T09:17:30;10.23;118.99
7942;HTU21D;4016;50.758;7.150;2024-02-21T09:22:32;10.35;118.99
7942;HTU21D;4016;50.758;7.150;2024-02-21T09:27:34;10.54;118.99
7942;HTU21D;4016;50.758;7.150;2024-02-21T09:32:35;10.73;118.99
7942;HTU21D;4016;50.758;7.150;2024-02-21T09:37:36;10.85;118.99
7942;HTU21D;4016;50.758;7.150;2024-02-21T09:42:40;10.66;118.99
7942;HTU21D;4016;50.758;7.150;2024-02-21T09:53:04;10.94;118.99
7942;HTU21D;4016;50.758;7.150;2024-02-21T09:58:05;11.10;118.99
7942;HTU21D;4016;50.758;7.150;2024-02-21T10:03:05;11.13;118.99
7942;HTU21D;4016;50.758;7.150;2024-02-21T10:08:14;11.18;118.99
7942;HTU21D;4016;50.758;7.150;2024-02-21T10:13:27;11.16;118.99
7942;HTU21D;4016;50.758;7.150;2024-02-21T10:18:28;11.22;118.99
7942;HTU21D;4016;50.758;7.150;2024-02-21T10:23:29;11.32;118.99
7942;HTU21D;4016;50.758;7.150;2024-02-21T10:28:29;11.49;118.99
7942;HTU21D;4016;50.758;7.150;2024-02-21T10:33:30;11.54;118.99
7942;HTU21D;4016;50.758;7.150;2024-02-21T10:38:32;11.78;118.99
7942;HTU21D;4016;50.758;7.150;2024-02-21T10:43:39;12.00;118.99
7942;HTU21D;4016;50.758;7.150;2024-02-21T10:48:44;12.16;118.99
7942;HTU21D;4016;50.758;7.150;2024-02-21T10:58:54;12.59;117.52
7942;HTU21D;4016;50.758;7.150;2024-02-21T11:04:03;12.53;111.74
7942;HTU21D;4016;50.758;7.150;2024-02-21T11:09:06;12.63;115.41
7942;HTU21D;4016;50.758;7.150;2024-02-21T11:14:20;12.75;114.06
7942;HTU21D;4016;50.758;7.150;2024-02-21T11:19:28;12.62;108.59
7942;HTU21D;4016;50.758;7.150;2024-02-21T11:24:33;12.62;112.26
7942;HTU21D;4016;50.758;7.150;2024-02-21T11:29:40;12.85;107.56
7942;HTU21D;4016;50.758;7.150;2024-02-21T11:34:41;12.88;110.65
7942;HTU21D;4016;50.758;7.150;2024-02-21T11:39:53;12.99;107.17
7942;HTU21D;4016;50.758;7.150;2024-02-21T11:44:56;13.14;105.18
7942;HTU21D;4016;50.758;7.150;2024-02-21T11:49:59;13.23;109.32
7942;HTU21D;4016;50.758;7.150;2024-02-21T11:54:59;13.24;104.96
7942;HTU21D;4016;50.758;7.150;2024-02-21T12:00:15;13.15;106.10
7942;HTU21D;4016;50.758;7.150;2024-02-21T12:05:16;13.18;106.92
7942;HTU21D;4016;50.758;7.150;2024-02-21T12:10:18;13.30;106.71
7942;HTU21D;4016;50.758;7.150;2024-02-21T12:15:20;13.02;101.86
7942;HTU21D;4016;50.758;7.150;2024-02-21T12:20:20;13.22;102.17
7942;HTU21D;4016;50.758;7.150;2024-02-21T12:25:22;12.96;102.98
7942;HTU21D;4016;50.758;7.150;2024-02-21T12:30:23;13.07;102.03
7942;HTU21D;4016;50.758;7.150;2024-02-21T12:35:23;12.91;100.79
7942;HTU21D;4016;50.758;7.150;2024-02-21T12:40:24;13.14;105.71
7942;HTU21D;4016;50.758;7.150;2024-02-21T12:45:25;13.12;100.90
7942;HTU21D;4016;50.758;7.150;2024-02-21T12:50:25;13.03;102.42
7942;HTU21D;4016;50.758;7.150;2024-02-21T12:55:25;13.09;101.83
7942;HTU21D;4016;50.758;7.150;2024-02-21T13:00:26;13.15;101.78
7942;HTU21D;4016;50.758;7.150;2024-02-21T13:05:27;13.36;103.81
7942;HTU21D;4016;50.758;7.150;2024-02-21T13:10:28;13.39;102.16
7942;HTU21D;4016;50.758;7.150;2024-02-21T13:15:28;13.40;103.50
7942;HTU21D;4016;50.758;7.150;2024-02-21T13:20:28;13.37;102.83
7942;HTU21D;4016;50.758;7.150;2024-02-21T13:25:29;13.27;102.83
7942;HTU21D;4016;50.758;7.150;2024-02-21T13:30:29;13.16;103.33
7942;HTU21D;4016;50.758;7.150;2024-02-21T13:35:29;12.97;100.90
7942;HTU21D;4016;50.758;7.150;2024-02-21T13:40:30;12.88;102.93
7942;HTU21D;4016;50.758;7.150;2024-02-21T13:45:30;12.88;103.16
7942;HTU21D;4016;50.758;7.150;2024-02-21T13:50:31;12.66;100.78
7942;HTU21D;4016;50.758;7.150;2024-02-21T13:55:31;12.44;100.29
7942;HTU21D;4016;50.758;7.150;2024-02-21T14:00:32;12.30;99.22
7942;HTU21D;4016;50.758;7.150;2024-02-21T14:05:34;12.29;99.58
7942;HTU21D;4016;50.758;7.150;2024-02-21T14:10:35;12.17;99.72
7942;HTU21D;4016;50.758;7.150;2024-02-21T14:15:35;12.25;103.95
7942;HTU21D;4016;50.758;7.150;2024-02-21T14:20:37;12.26;103.97
7942;HTU21D;4016;50.758;7.150;2024-02-21T14:25:37;12.21;101.19
7942;HTU21D;4016;50.758;7.150;2024-02-21T14:30:39;12.26;104.38
7942;HTU21D;4016;50.758;7.150;2024-02-21T14:35:39;12.18;104.61
7942;HTU21D;4016;50.758;7.150;2024-02-21T14:40:40;12.18;106.27
7942;HTU21D;4016;50.758;7.150;2024-02-21T14:45:40;12.18;108.58
7942;HTU21D;4016;50.758;7.150;2024-02-21T14:50:41;12.17;107.50
7942;HTU21D;4016;50.758;7.150;2024-02-21T14:55:42;12.16;103.02
7942;HTU21D;4016;50.758;7.150;2024-02-21T15:00:43;12.16;100.61
7942;HTU21D;4016;50.758;7.150;2024-02-21T15:05:43;12.17;96.46
7942;HTU21D;4016;50.758;7.150;2024-02-21T15:10:43;12.22;93.27
7942;HTU21D;4016;50.758;7.150;2024-02-21T15:15:44;12.25;93.52
7942;HTU21D;4016;50.758;7.150;2024-02-21T15:20:44;12.12;92.92
7942;HTU21D;4016;50.758;7.150;2024-02-21T15:25:45;12.08;90.67
7942;HTU21D;4016;50.758;7.150;2024-02-21T15:30:45;12.12;92.08
7942;HTU21D;4016;50.758;7.150;2024-02-21T15:35:46;11.99;88.34
7942;HTU21D;4016;50.758;7.150;2024-02-21T15:40:46;11.92;91.40
7942;HTU21D;4016;50.758;7.150;2024-02-21T15:45:46;11.89;93.40
7942;HTU21D;4016;50.758;7.150;2024-02-21T15:50:47;11.91;91.10
7942;HTU21D;4016;50.758;7.150;2024-02-21T15:55:47;11.86;92.17
7942;HTU21D;4016;50.758;7.150;2024-02-21T16:00:48;11.86;91.66
7942;HTU21D;4016;50.758;7.150;2024-02-21T16:05:49;11.68;92.40
7942;HTU21D;4016;50.758;7.150;2024-02-21T16:10:49;11.49;95.00
7942;HTU21D;4016;50.758;7.150;2024-02-21T16:15:50;11.45;95.82
7942;HTU21D;4016;50.758;7.150;2024-02-21T16:20:51;11.39;96.79
7942;HTU21D;4016;50.758;7.150;2024-02-21T16:25:51;11.36;94.82
7942;HTU21D;4016;50.758;7.150;2024-02-21T16:30:52;11.34;95.31
7942;HTU21D;4016;50.758;7.150;2024-02-21T16:35:53;11.23;97.70
7942;HTU21D;4016;50.758;7.150;2024-02-21T16:40:54;11.15;96.05
7942;HTU21D;4016;50.758;7.150;2024-02-21T16:45:55;11.08;98.92
7942;HTU21D;4016;50.758;7.150;2024-02-21T16:50:55;10.98;96.88
7942;HTU21D;4016;50.758;7.150;2024-02-21T16:55:55;10.81;98.62
7942;HTU21D;4016;50.758;7.150;2024-02-21T17:00:56;10.81;100.12
7942;HTU21D;4016;50.758;7.150;2024-02-21T17:05:56;10.73;102.70
7942;HTU21D;4016;50.758;7.150;2024-02-21T17:10:57;10.65;106.14
7942;HTU21D;4016;50.758;7.150;2024-02-21T17:15:57;10.55;105.88
7942;HTU21D;4016;50.758;7.150;2024-02-21T17:20:57;10.56;106.12
7942;HTU21D;4016;50.758;7.150;2024-02-21T17:25:58;10.58;106.51
7942;HTU21D;4016;50.758;7.150;2024-02-21T17:30:58;10.46;107.54
7942;HTU21D;4016;50.758;7.150;2024-02-21T17:35:59;10.49;107.93
7942;HTU21D;4016;50.758;7.150;2024-02-21T17:40:59;10.43;109.85
7942;HTU21D;4016;50.758;7.150;2024-02-21T17:46:00;10.38;107.96
7942;HTU21D;4016;50.758;7.150;2024-02-21T17:51:00;10.40;108.76
7942;HTU21D;4016;50.758;7.150;2024-02-21T17:56:01;10.39;107.82
7942;HTU21D;4016;50.758;7.150;2024-02-21T18:01:01;10.42;107.68
7942;HTU21D;4016;50.758;7.150;2024-02-21T18:06:02;10.45;107.66
7942;HTU21D;4016;50.758;7.150;2024-02-21T18:11:03;10.28;109.10
7942;HTU21D;4016;50.758;7.150;2024-02-21T18:16:03;10.26;109.88
7942;HTU21D;4016;50.758;7.150;2024-02-21T18:21:04;10.24;112.77
7942;HTU21D;4016;50.758;7.150;2024-02-21T18:26:07;10.15;115.86
7942;HTU21D;4016;50.758;7.150;2024-02-21T18:31:07;10.13;117.15
7942;HTU21D;4016;50.758;7.150;2024-02-21T18:36:07;10.04;118.20
7942;HTU21D;4016;50.758;7.150;2024-02-21T18:41:09;9.99;118.99
7942;HTU21D;4016;50.758;7.150;2024-02-21T18:46:09;9.97;118.99
7942;HTU21D;4016;50.758;7.150;2024-02-21T18:51:10;9.86;118.99
7942;HTU21D;4016;50.758;7.150;2024-02-21T18:56:10;9.71;118.99
7942;HTU21D;4016;50.758;7.150;2024-02-21T19:01:10;9.56;118.99
7942;HTU21D;4016;50.758;7.150;2024-02-21T19:06:11;9.50;118.99
7942;HTU21D;4016;50.758;7.150;2024-02-21T19:11:14;9.32;118.99
7942;HTU21D;4016;50.758;7.150;2024-02-21T19:16:15;9.16;118.99
7942;HTU21D;4016;50.758;7.150;2024-02-21T19:21:15;9.06;118.99
7942;HTU21D;4016;50.758;7.150;2024-02-21T19:26:16;9.03;118.99
7942;HTU21D;4016;50.758;7.150;2024-02-21T19:31:17;9.01;118.99
7942;HTU21D;4016;50.758;7.150;2024-02-21T19:36:17;8.87;118.99
7942;HTU21D;4016;50.758;7.150;2024-02-21T19:41:19;8.73;118.99
7942;HTU21D;4016;50.758;7.150;2024-02-21T19:46:19;8.67;118.99
7942;HTU21D;4016;50.758;7.150;2024-02-21T19:51:20;8.59;118.99
7942;HTU21D;4016;50.758;7.150;2024-02-21T19:56:20;8.55;118.99
7942;HTU21D;4016;50.758;7.150;2024-02-21T20:01:21;8.73;118.99
7942;HTU21D;4016;50.758;7.150;2024-02-21T20:06:21;8.68;118.99
7942;HTU21D;4016;50.758;7.150;2024-02-21T20:11:21;8.62;118.99
7942;HTU21D;4016;50.758;7.150;2024-02-21T20:16:22;8.59;118.99
7942;HTU21D;4016;50.758;7.150;2024-02-21T20:21:25;8.65;118.99
7942;HTU21D;4016;50.758;7.150;2024-02-21T20:26:26;8.77;118.99
7942;HTU21D;4016;50.758;7.150;2024-02-21T20:31:26;9.01;118.99
7942;HTU21D;4016;50.758;7.150;2024-02-21T20:36:26;9.06;118.99
7942;HTU21D;4016;50.758;7.150;2024-02-21T20:41:27;9.03;118.99
7942;HTU21D;4016;50.758;7.150;2024-02-21T20:46:27;9.05;118.99
7942;HTU21D;4016;50.758;7.150;2024-02-21T20:51:27;9.02;118.99
7942;HTU21D;4016;50.758;7.150;2024-02-21T20:56:28;9.06;118.99
7942;HTU21D;4016;50.758;7.150;2024-02-21T21:01:29;8.97;118.99
7942;HTU21D;4016;50.758;7.150;2024-02-21T21:06:29;8.97;118.99
7942;HTU21D;4016;50.758;7.150;2024-02-21T21:11:29;8.90;118.99
7942;HTU21D;4016;50.758;7.150;2024-02-21T21:16:30;9.00;118.99
7942;HTU21D;4016;50.758;7.150;2024-02-21T21:21:32;8.91;118.99
7942;HTU21D;4016;50.758;7.150;2024-02-21T21:26:32;8.80;118.99
7942;HTU21D;4016;50.758;7.150;2024-02-21T21:31:33;8.89;118.99
7942;HTU21D;4016;50.758;7.150;2024-02-21T21:36:33;8.81;118.99
7942;HTU21D;4016;50.758;7.150;2024-02-21T21:41:34;8.87;118.99
7942;HTU21D;4016;50.758;7.150;2024-02-21T21:46:35;8.85;118.99
7942;HTU21D;4016;50.758;7.150;2024-02-21T21:51:39;8.76;118.99
7942;HTU21D;4016;50.758;7.150;2024-02-21T21:56:39;8.77;118.99
7942;HTU21D;4016;50.758;7.150;2024-02-21T22:01:40;8.78;118.99
7942;HTU21D;4016;50.758;7.150;2024-02-21T22:06:40;8.82;118.99
7942;HTU21D;4016;50.758;7.150;2024-02-21T22:11:41;8.75;118.99
7942;HTU21D;4016;50.758;7.150;2024-02-21T22:16:41;8.82;118.99
7942;HTU21D;4016;50.758;7.150;2024-02-21T22:21:41;8.74;118.99
7942;HTU21D;4016;50.758;7.150;2024-02-21T22:26:42;8.72;118.99
7942;HTU21D;4016;50.758;7.150;2024-02-21T22:31:42;8.74;118.99
7942;HTU21D;4016;50.758;7.150;2024-02-21T22:36:42;8.68;118.99
7942;HTU21D;4016;50.758;7.150;2024-02-21T22:41:43;8.68;118.99
7942;HTU21D;4016;50.758;7.150;2024-02-21T22:46:45;8.75;118.99
7942;HTU21D;4016;50.758;7.150;2024-02-21T22:51:45;8.73;118.99
7942;HTU21D;4016;50.758;7.150;2024-02-21T22:56:45;8.66;118.99
7942;HTU21D;4016;50.758;7.150;2024-02-21T23:01:46;8.65;118.99
7942;HTU21D;4016;50.758;7.150;2024-02-21T23:06:46;8.62;118.99
7942;HTU21D;4016;50.758;7.150;2024-02-21T23:11:47;8.60;118.99
7942;HTU21D;4016;50.758;7.150;2024-02-21T23:16:47;8.59;118.99
7942;HTU21D;4016;50.758;7.150;2024-02-21T23:21:48;8.55;118.99
7942;HTU21D;4016;50.758;7.150;2024-02-21T23:26:48;8.55;118.99
7942;HTU21D;4016;50.758;7.150;2024-02-21T23:31:49;8.55;118.99
7942;HTU21D;4016;50.758;7.150;2024-02-21T23:36:50;8.48;118.99
7942;HTU21D;4016;50.758;7.150;2024-02-21T23:41:52;8.56;118.99
7942;HTU21D;4016;50.758;7.150;2024-02-21T23:46:52;8.50;118.99
7942;HTU21D;4016;50.758;7.150;2024-02-21T23:51:53;8.53;118.99
7942;HTU21D;4016;50.758;7.150;2024-02-21T23:56:55;8.53;118.99
